Time;durP1;ratioP1;P1;durP2;ratioP2;P2;SDS_P1;SDS_P2;PMS_P1;PMS_P2;Temp;Humidity;BMP_temperature;BMP_pressure;BME280_temperature;BME280_humidity;BME280_pressure;Samples;Min_cycle;Max_cycle;Signal;HPM_P1;HPM_P2
2022/07/20 00:00:26;;;;;;;1.50;1.40;;;;;;;;;;5034975;28;20623;-82
2022/07/20 00:02:53;;;;;;;1.30;1.20;;;;;;;;;;5035188;28;20292;-83
2022/07/20 00:05:21;;;;;;;1.95;1.83;;;;;;;;;;5034942;28;20261;-83
2022/07/20 00:07:49;;;;;;;2.60;2.35;;;;;;;;;;5034812;28;20281;-83
2022/07/20 00:13:01;;;;;;;2.20;1.23;;;;;;;;;;5035573;28;20202;-82
2022/07/20 00:15:30;;;;;;;1.58;1.45;;;;;;;;;;5035413;28;20241;-82
2022/07/20 00:17:57;;;;;;;1.92;1.40;;;;;;;;;;5034774;28;20285;-83
2022/07/20 00:20:25;;;;;;;1.75;1.30;;;;;;;;;;5035125;28;20312;-82
2022/07/20 00:22:53;;;;;;;1.83;1.73;;;;;;;;;;5035487;28;20318;-83
2022/07/20 00:25:20;;;;;;;1.40;1.30;;;;;;;;;;5035330;28;20228;-81
2022/07/20 00:27:48;;;;;;;1.60;1.50;;;;;;;;;;5035321;28;20290;-83
2022/07/20 00:30:16;;;;;;;1.60;1.50;;;;;;;;;;5035701;28;20194;-81
2022/07/20 00:32:45;;;;;;;1.58;1.48;;;;;;;;;;5035239;28;20302;-83
2022/07/20 00:35:15;;;;;;;1.52;1.42;;;;;;;;;;5032511;28;20766;-81
2022/07/20 00:37:43;;;;;;;1.95;1.30;;;;;;;;;;5020233;28;20294;-84
2022/07/20 00:40:14;;;;;;;1.83;1.73;;;;;;;;;;5019843;28;20680;-82
2022/07/20 00:42:41;;;;;;;2.03;1.88;;;;;;;;;;5019627;28;20237;-81
2022/07/20 00:45:11;;;;;;;1.58;1.48;;;;;;;;;;5020023;28;20314;-83
2022/07/20 00:47:39;;;;;;;1.60;1.50;;;;;;;;;;5020335;28;20271;-81
2022/07/20 00:50:09;;;;;;;2.03;1.70;;;;;;;;;;5019972;28;20234;-80
2022/07/20 00:52:37;;;;;;;1.65;1.55;;;;;;;;;;5018929;28;20230;-83
2022/07/20 00:55:06;;;;;;;2.60;1.55;;;;;;;;;;5019913;28;20669;-81
2022/07/20 00:57:34;;;;;;;1.63;1.38;;;;;;;;;;5018665;28;20294;-83
2022/07/20 01:00:02;;;;;;;1.60;1.50;;;;;;;;;;5019066;28;20282;-83
2022/07/20 01:02:29;;;;;;;1.58;1.48;;;;;;;;;;5019313;28;20253;-83
2022/07/20 01:04:57;;;;;;;1.40;1.30;;;;;;;;;;5019075;28;20757;-82
2022/07/20 01:07:26;;;;;;;1.50;1.40;;;;;;;;;;5019134;28;20238;-82
2022/07/20 01:09:53;;;;;;;1.30;1.20;;;;;;;;;;5018822;28;20637;-82
2022/07/20 01:12:21;;;;;;;1.40;1.30;;;;;;;;;;5019297;28;20667;-83
2022/07/20 01:14:55;;;;;;;1.60;1.50;;;;;;;;;;5019670;28;20246;-83
2022/07/20 01:17:22;;;;;;;1.48;1.38;;;;;;;;;;5019550;28;20229;-83
2022/07/20 01:19:50;;;;;;;2.38;1.60;;;;;;;;;;5019510;28;20207;-82
2022/07/20 01:22:19;;;;;;;1.55;1.45;;;;;;;;;;5018568;28;20204;-82
2022/07/20 01:24:46;;;;;;;1.50;1.40;;;;;;;;;;5019267;28;20645;-83
2022/07/20 01:27:14;;;;;;;1.45;1.35;;;;;;;;;;5018962;28;20203;-83
2022/07/20 01:29:41;;;;;;;1.50;1.35;;;;;;;;;;5019432;28;20203;-83
2022/07/20 01:32:09;;;;;;;1.70;1.60;;;;;;;;;;5019187;28;20231;-83
2022/07/20 01:34:37;;;;;;;1.60;1.50;;;;;;;;;;5018655;28;20269;-83
2022/07/20 01:37:04;;;;;;;1.45;1.35;;;;;;;;;;5018953;28;20238;-83
2022/07/20 01:39:33;;;;;;;1.73;1.63;;;;;;;;;;5018905;28;20293;-83
2022/07/20 01:42:01;;;;;;;1.90;1.70;;;;;;;;;;5018796;28;20261;-83
2022/07/20 01:44:28;;;;;;;1.67;1.55;;;;;;;;;;5018876;28;20644;-83
2022/07/20 01:46:56;;;;;;;1.98;1.20;;;;;;;;;;5018132;28;20243;-83
2022/07/20 01:49:24;;;;;;;1.95;1.45;;;;;;;;;;5018548;28;20734;-82
2022/07/20 01:51:52;;;;;;;1.45;1.42;;;;;;;;;;5018460;28;20302;-83
2022/07/20 01:54:19;;;;;;;1.40;1.40;;;;;;;;;;5018789;28;20314;-83
2022/07/20 01:56:48;;;;;;;1.58;1.48;;;;;;;;;;5018288;28;20290;-83
2022/07/20 01:59:16;;;;;;;1.58;1.48;;;;;;;;;;5018290;28;20334;-83
2022/07/20 02:01:43;;;;;;;1.60;1.50;;;;;;;;;;5018345;28;20318;-83
2022/07/20 02:04:11;;;;;;;1.50;1.40;;;;;;;;;;5017882;28;20301;-83
2022/07/20 02:06:38;;;;;;;1.98;1.80;;;;;;;;;;5017476;28;20267;-82
2022/07/20 02:09:06;;;;;;;1.98;1.80;;;;;;;;;;5017930;28;20211;-82
2022/07/20 02:11:33;;;;;;;1.88;1.75;;;;;;;;;;5018524;28;20227;-82
2022/07/20 02:14:02;;;;;;;2.13;1.92;;;;;;;;;;5017529;28;20314;-83
2022/07/20 02:16:30;;;;;;;2.42;2.22;;;;;;;;;;5018404;28;20293;-83
2022/07/20 02:18:57;;;;;;;3.10;2.80;;;;;;;;;;5018219;28;20261;-82
2022/07/20 02:21:26;;;;;;;3.80;3.50;;;;;;;;;;5018083;28;20230;-82
2022/07/20 02:23:54;;;;;;;7.00;5.07;;;;;;;;;;5017628;28;20276;-83
2022/07/20 02:26:21;;;;;;;4.95;4.55;;;;;;;;;;5017726;28;20640;-82
2022/07/20 02:28:49;;;;;;;5.15;4.50;;;;;;;;;;5018599;28;20707;-80
2022/07/20 02:31:19;;;;;;;4.60;3.83;;;;;;;;;;5018528;28;20694;-82
2022/07/20 02:33:47;;;;;;;4.00;3.67;;;;;;;;;;5018220;28;20730;-82
2022/07/20 02:36:15;;;;;;;3.72;3.42;;;;;;;;;;5017930;28;20230;-83
2022/07/20 02:38:43;;;;;;;3.55;3.25;;;;;;;;;;5017354;28;20214;-83
2022/07/20 02:41:10;;;;;;;3.45;3.05;;;;;;;;;;5017463;28;20225;-83
2022/07/20 02:43:38;;;;;;;2.90;2.70;;;;;;;;;;5017410;28;20314;-83
2022/07/20 02:46:06;;;;;;;2.78;2.58;;;;;;;;;;5017709;28;20206;-83
2022/07/20 02:48:35;;;;;;;2.28;2.17;;;;;;;;;;5017792;28;20674;-82
2022/07/20 02:51:03;;;;;;;2.10;1.95;;;;;;;;;;5017301;28;20750;-82
2022/07/20 02:53:30;;;;;;;2.38;2.17;;;;;;;;;;5017252;28;20640;-82
2022/07/20 02:55:58;;;;;;;2.08;1.98;;;;;;;;;;5016855;28;20747;-83
2022/07/20 02:58:25;;;;;;;3.13;2.15;;;;;;;;;;5016190;28;20235;-82
2022/07/20 03:00:53;;;;;;;2.75;2.17;;;;;;;;;;5016921;28;20206;-83
2022/07/20 03:03:20;;;;;;;2.30;2.10;;;;;;;;;;5016488;28;20237;-82
2022/07/20 03:05:49;;;;;;;2.03;1.92;;;;;;;;;;5017115;28;20289;-83
2022/07/20 03:08:17;;;;;;;3.00;2.08;;;;;;;;;;5016402;28;20294;-83
2022/07/20 03:10:45;;;;;;;2.20;2.00;;;;;;;;;;5017092;28;20266;-83
2022/07/20 03:13:12;;;;;;;2.05;1.95;;;;;;;;;;5017006;28;20202;-83
2022/07/20 03:15:40;;;;;;;2.17;2.08;;;;;;;;;;5016706;28;20238;-82
2022/07/20 03:18:07;;;;;;;1.90;1.80;;;;;;;;;;5016317;28;20289;-83
2022/07/20 03:20:35;;;;;;;2.10;2.00;;;;;;;;;;5017183;28;20286;-83
2022/07/20 03:23:05;;;;;;;2.75;2.35;;;;;;;;;;5016202;28;20309;-81
2022/07/20 03:25:32;;;;;;;1.63;1.52;;;;;;;;;;5017129;28;20572;-81
2022/07/20 03:28:01;;;;;;;1.70;1.60;;;;;;;;;;5016106;28;20235;-82
2022/07/20 03:30:29;;;;;;;1.50;1.40;;;;;;;;;;5016826;28;20203;-81
2022/07/20 03:32:57;;;;;;;1.50;1.40;;;;;;;;;;5016900;28;20702;-81
2022/07/20 03:35:25;;;;;;;2.30;1.70;;;;;;;;;;5029925;28;20320;-81
2022/07/20 03:37:52;;;;;;;1.70;1.60;;;;;;;;;;5043846;28;20289;-81
2022/07/20 03:40:21;;;;;;;1.88;1.77;;;;;;;;;;5044774;28;20236;-81
2022/07/20 03:42:49;;;;;;;2.00;1.90;;;;;;;;;;5044170;28;20223;-81
2022/07/20 03:45:16;;;;;;;1.80;1.70;;;;;;;;;;5043825;28;20238;-81
2022/07/20 03:47:44;;;;;;;1.85;1.75;;;;;;;;;;5042624;28;20245;-82
2022/07/20 03:50:11;;;;;;;2.17;1.95;;;;;;;;;;5042197;28;20277;-82
2022/07/20 03:52:39;;;;;;;1.85;1.75;;;;;;;;;;5039536;28;20226;-82
2022/07/20 03:55:08;;;;;;;2.03;1.92;;;;;;;;;;5041395;28;20261;-82
2022/07/20 03:57:37;;;;;;;2.30;2.20;;;;;;;;;;5040732;28;20265;-82
2022/07/20 04:00:06;;;;;;;2.90;2.40;;;;;;;;;;5041415;28;20679;-82
2022/07/20 04:02:33;;;;;;;2.70;2.13;;;;;;;;;;5040875;28;20718;-82
2022/07/20 04:05:01;;;;;;;1.90;1.75;;;;;;;;;;5037740;28;20266;-82
2022/07/20 04:07:28;;;;;;;1.90;1.80;;;;;;;;;;5021960;28;20255;-82
2022/07/20 04:09:56;;;;;;;1.80;1.70;;;;;;;;;;5021404;28;20225;-82
2022/07/20 04:12:25;;;;;;;3.92;2.00;;;;;;;;;;5021436;28;20715;-82
2022/07/20 04:14:55;;;;;;;2.47;2.28;;;;;;;;;;5021656;28;20235;-82
2022/07/20 04:17:23;;;;;;;1.95;1.85;;;;;;;;;;5021316;28;20225;-82
2022/07/20 04:19:51;;;;;;;3.58;2.17;;;;;;;;;;5021846;28;20206;-81
2022/07/20 04:22:18;;;;;;;1.80;1.70;;;;;;;;;;5022020;28;20258;-82
2022/07/20 04:24:46;;;;;;;2.40;2.20;;;;;;;;;;5022264;28;20234;-82
2022/07/20 04:27:13;;;;;;;2.22;2.00;;;;;;;;;;5022257;28;20262;-81
2022/07/20 04:29:41;;;;;;;2.70;2.50;;;;;;;;;;5023448;28;20711;-81
2022/07/20 04:32:10;;;;;;;2.00;1.90;;;;;;;;;;5023340;28;20230;-81
2022/07/20 04:34:37;;;;;;;2.38;2.03;;;;;;;;;;5023404;28;20234;-82
2022/07/20 04:37:05;;;;;;;2.35;1.98;;;;;;;;;;5022462;28;20242;-82
2022/07/20 04:39:32;;;;;;;2.30;2.10;;;;;;;;;;5023353;28;20234;-81
2022/07/20 04:42:00;;;;;;;1.77;1.67;;;;;;;;;;5023936;28;20254;-81
2022/07/20 04:44:27;;;;;;;1.75;1.65;;;;;;;;;;5023570;28;20227;-81
2022/07/20 04:46:55;;;;;;;2.40;2.20;;;;;;;;;;5022781;28;20270;-81
2022/07/20 04:49:24;;;;;;;1.80;1.70;;;;;;;;;;5022595;28;20245;-82
2022/07/20 04:51:51;;;;;;;1.98;1.73;;;;;;;;;;5022453;28;20266;-83
2022/07/20 04:54:21;;;;;;;2.25;2.15;;;;;;;;;;5023512;28;20282;-82
2022/07/20 04:56:49;;;;;;;1.92;1.83;;;;;;;;;;5021710;28;20238;-82
2022/07/20 04:59:16;;;;;;;1.92;1.83;;;;;;;;;;5022215;28;20270;-83
2022/07/20 05:01:44;;;;;;;2.88;2.08;;;;;;;;;;5022526;28;20245;-83
2022/07/20 05:04:11;;;;;;;1.88;1.77;;;;;;;;;;5022463;28;20237;-82
2022/07/20 05:06:40;;;;;;;1.98;1.88;;;;;;;;;;5023096;28;20234;-82
2022/07/20 05:09:10;;;;;;;2.30;2.15;;;;;;;;;;5022803;28;20203;-83
2022/07/20 05:11:37;;;;;;;2.05;1.88;;;;;;;;;;5021511;28;20249;-82
2022/07/20 05:14:05;;;;;;;2.40;2.20;;;;;;;;;;5024043;28;20634;-82
2022/07/20 05:16:33;;;;;;;3.03;2.67;;;;;;;;;;5022658;28;20656;-82
2022/07/20 05:19:00;;;;;;;2.38;2.17;;;;;;;;;;5021603;28;20242;-81
2022/07/20 05:21:29;;;;;;;2.72;2.53;;;;;;;;;;5023730;28;20297;-82
2022/07/20 05:23:57;;;;;;;2.63;2.42;;;;;;;;;;5025539;28;20226;-81
2022/07/20 05:26:25;;;;;;;3.10;2.50;;;;;;;;;;5027250;28;20236;-82
2022/07/20 05:28:53;;;;;;;2.92;2.72;;;;;;;;;;5045325;28;20230;-81
2022/07/20 05:31:20;;;;;;;2.80;2.60;;;;;;;;;;5045527;28;20202;-82
2022/07/20 05:33:48;;;;;;;2.92;2.72;;;;;;;;;;5044538;28;20294;-80
2022/07/20 05:36:15;;;;;;;2.92;2.65;;;;;;;;;;5045345;28;20237;-80
2022/07/20 05:38:43;;;;;;;2.95;2.75;;;;;;;;;;5043911;28;20245;-82
2022/07/20 05:41:12;;;;;;;2.95;2.70;;;;;;;;;;5045591;28;20241;-82
2022/07/20 05:43:39;;;;;;;3.25;2.95;;;;;;;;;;5045056;28;20290;-81
2022/07/20 05:46:07;;;;;;;4.65;2.92;;;;;;;;;;5045029;28;20241;-82
2022/07/20 05:48:35;;;;;;;3.72;3.42;;;;;;;;;;5044546;28;20202;-82
2022/07/20 05:51:02;;;;;;;3.05;2.85;;;;;;;;;;5044545;28;20226;-82
2022/07/20 05:53:30;;;;;;;4.55;3.78;;;;;;;;;;5043774;28;20249;-81
2022/07/20 05:55:57;;;;;;;4.10;3.70;;;;;;;;;;5043066;28;20258;-81
2022/07/20 05:58:26;;;;;;;2.92;2.72;;;;;;;;;;5044875;28;20270;-82
2022/07/20 06:00:54;;;;;;;3.15;2.92;;;;;;;;;;5043923;28;20242;-81
2022/07/20 06:03:21;;;;;;;4.13;2.72;;;;;;;;;;5042658;28;20273;-81
2022/07/20 06:05:49;;;;;;;2.85;2.65;;;;;;;;;;5042049;28;20290;-81
2022/07/20 06:08:16;;;;;;;2.88;2.67;;;;;;;;;;5040978;28;20234;-81
2022/07/20 06:10:44;;;;;;;3.40;2.80;;;;;;;;;;5042022;28;20317;-82
2022/07/20 06:13:11;;;;;;;2.67;2.47;;;;;;;;;;5042183;28;20233;-82
2022/07/20 06:15:40;;;;;;;2.60;2.40;;;;;;;;;;5042274;28;20226;-81
2022/07/20 06:18:08;;;;;;;2.83;2.58;;;;;;;;;;5042779;28;20669;-81
2022/07/20 06:20:36;;;;;;;2.70;2.50;;;;;;;;;;5040939;28;20229;-81
2022/07/20 06:23:03;;;;;;;3.45;3.15;;;;;;;;;;5038953;28;20657;-81
2022/07/20 06:25:31;;;;;;;2.83;2.63;;;;;;;;;;5039851;28;20277;-82
2022/07/20 06:28:00;;;;;;;3.58;3.28;;;;;;;;;;5038194;28;20234;-82
2022/07/20 06:30:28;;;;;;;4.38;3.75;;;;;;;;;;5038454;28;20202;-81
2022/07/20 06:32:57;;;;;;;4.60;3.00;;;;;;;;;;5032685;28;20289;-82
2022/07/20 06:35:25;;;;;;;3.70;3.38;;;;;;;;;;5029896;28;20230;-81
2022/07/20 06:37:53;;;;;;;3.45;3.00;;;;;;;;;;5039675;28;20571;-81
2022/07/20 06:40:21;;;;;;;3.13;2.83;;;;;;;;;;5040296;28;20186;-81
2022/07/20 06:42:48;;;;;;;3.00;2.80;;;;;;;;;;5040319;28;20688;-80
2022/07/20 06:45:16;;;;;;;2.55;2.40;;;;;;;;;;5040359;28;20280;-82
2022/07/20 06:47:44;;;;;;;3.92;3.25;;;;;;;;;;5039159;28;20245;-80
2022/07/20 06:50:12;;;;;;;2.88;2.67;;;;;;;;;;5040978;28;20241;-80
2022/07/20 06:52:40;;;;;;;2.80;2.60;;;;;;;;;;5039829;28;20706;-81
2022/07/20 06:55:09;;;;;;;3.33;3.03;;;;;;;;;;5041866;28;20738;-82
2022/07/20 06:57:37;;;;;;;3.25;2.95;;;;;;;;;;5039807;28;20243;-81
2022/07/20 07:00:07;;;;;;;2.90;2.53;;;;;;;;;;5042708;28;20210;-80
2022/07/20 07:02:34;;;;;;;2.78;2.55;;;;;;;;;;5040703;28;20230;-81
2022/07/20 07:05:02;;;;;;;2.80;2.60;;;;;;;;;;5040100;28;20710;-81
2022/07/20 07:07:31;;;;;;;3.25;3.05;;;;;;;;;;5039177;28;20242;-81
2022/07/20 07:09:58;;;;;;;3.38;2.88;;;;;;;;;;5041011;28;20248;-82
2022/07/20 07:12:26;;;;;;;2.53;2.38;;;;;;;;;;5039482;28;20242;-81
2022/07/20 07:14:53;;;;;;;2.58;2.38;;;;;;;;;;5039068;28;20254;-80
2022/07/20 07:17:21;;;;;;;2.20;2.10;;;;;;;;;;5037700;28;20261;-80
2022/07/20 07:19:48;;;;;;;2.78;2.58;;;;;;;;;;5025680;28;20206;-82
2022/07/20 07:22:16;;;;;;;2.47;2.28;;;;;;;;;;5033377;28;20249;-82
2022/07/20 07:24:45;;;;;;;2.53;2.38;;;;;;;;;;5041310;28;20248;-82
2022/07/20 07:27:12;;;;;;;2.97;2.72;;;;;;;;;;5042208;28;20232;-81
2022/07/20 07:29:40;;;;;;;2.75;2.55;;;;;;;;;;5039928;28;20222;-82
2022/07/20 07:32:08;;;;;;;3.05;2.50;;;;;;;;;;5039941;28;20233;-81
2022/07/20 07:34:35;;;;;;;4.20;2.90;;;;;;;;;;5039086;28;20256;-81
2022/07/20 07:37:03;;;;;;;2.33;2.13;;;;;;;;;;5037734;28;20289;-80
2022/07/20 07:39:30;;;;;;;3.45;2.35;;;;;;;;;;5038683;28;20636;-81
2022/07/20 07:41:59;;;;;;;3.95;2.97;;;;;;;;;;5038838;28;20344;-81
2022/07/20 07:44:27;;;;;;;2.78;2.58;;;;;;;;;;5038137;28;20225;-81
2022/07/20 07:46:54;;;;;;;2.22;2.08;;;;;;;;;;5038437;28;20288;-82
2022/07/20 07:49:22;;;;;;;2.40;2.20;;;;;;;;;;5040403;28;20225;-81
2022/07/20 07:51:49;;;;;;;2.15;2.00;;;;;;;;;;5038896;28;20245;-81
2022/07/20 07:54:17;;;;;;;2.63;1.77;;;;;;;;;;5039963;28;20252;-81
2022/07/20 07:56:44;;;;;;;2.45;2.30;;;;;;;;;;5039029;28;20237;-81
2022/07/20 07:59:13;;;;;;;2.15;2.05;;;;;;;;;;5039050;28;20276;-81
2022/07/20 08:01:41;;;;;;;3.20;2.72;;;;;;;;;;5039789;28;20208;-81
2022/07/20 08:04:08;;;;;;;4.18;2.78;;;;;;;;;;5038259;28;20710;-81
2022/07/20 08:06:37;;;;;;;2.15;2.05;;;;;;;;;;5037425;28;20210;-82
2022/07/20 08:09:04;;;;;;;2.30;2.20;;;;;;;;;;5039550;28;20206;-81
2022/07/20 08:11:32;;;;;;;2.33;2.17;;;;;;;;;;5037961;28;20678;-81
2022/07/20 08:14:02;;;;;;;3.25;2.95;;;;;;;;;;5039488;28;20317;-81
2022/07/20 08:16:32;;;;;;;2.40;2.20;;;;;;;;;;5037400;28;20245;-80
2022/07/20 08:18:59;;;;;;;2.78;2.55;;;;;;;;;;5039982;28;20391;-80
2022/07/20 08:21:27;;;;;;;2.83;2.60;;;;;;;;;;5039843;28;20194;-80
2022/07/20 08:23:55;;;;;;;4.22;2.70;;;;;;;;;;5038679;28;20701;-81
2022/07/20 08:26:22;;;;;;;2.15;2.05;;;;;;;;;;5039531;28;20241;-82
2022/07/20 08:28:50;;;;;;;2.40;2.30;;;;;;;;;;5038016;28;20296;-81
2022/07/20 08:31:17;;;;;;;2.40;2.20;;;;;;;;;;5039011;28;20232;-81
2022/07/20 08:33:46;;;;;;;2.65;2.45;;;;;;;;;;5037573;28;20234;-82
2022/07/20 08:36:13;;;;;;;2.63;2.42;;;;;;;;;;5023125;28;20242;-80
2022/07/20 08:38:41;;;;;;;3.60;2.78;;;;;;;;;;5017708;28;20581;-82
2022/07/20 08:41:09;;;;;;;2.67;2.58;;;;;;;;;;5034634;28;20237;-82
2022/07/20 08:43:37;;;;;;;2.25;2.05;;;;;;;;;;5038377;28;20973;-81
2022/07/20 08:46:04;;;;;;;2.38;2.28;;;;;;;;;;5037655;28;20261;-81
2022/07/20 08:48:32;;;;;;;2.33;2.15;;;;;;;;;;5037438;28;20548;-82
2022/07/20 08:51:01;;;;;;;2.53;2.33;;;;;;;;;;5038192;28;20234;-81
2022/07/20 08:53:29;;;;;;;2.10;2.00;;;;;;;;;;5038229;28;20253;-80
2022/07/20 08:55:56;;;;;;;2.58;2.08;;;;;;;;;;5041207;28;20202;-81
2022/07/20 08:58:24;;;;;;;2.80;2.50;;;;;;;;;;5042099;28;20244;-80
2022/07/20 09:00:51;;;;;;;2.63;2.42;;;;;;;;;;5042128;28;20633;-81
2022/07/20 09:03:20;;;;;;;2.60;2.42;;;;;;;;;;5042117;28;20292;-81
2022/07/20 09:05:47;;;;;;;2.35;2.25;;;;;;;;;;5031379;28;20695;-80
2022/07/20 09:08:18;;;;;;;2.90;2.70;;;;;;;;;;5021134;28;20234;-81
2022/07/20 09:10:47;;;;;;;2.97;2.78;;;;;;;;;;5023289;28;20555;-81
2022/07/20 09:13:17;;;;;;;3.00;2.80;;;;;;;;;;5020922;28;20229;-81
2022/07/20 09:15:47;;;;;;;2.70;2.50;;;;;;;;;;5023500;28;20210;-81
2022/07/20 09:18:17;;;;;;;3.72;3.00;;;;;;;;;;5021031;28;20825;-81
2022/07/20 09:20:47;;;;;;;3.72;3.42;;;;;;;;;;5023604;28;20217;-81
2022/07/20 09:23:19;;;;;;;3.30;3.08;;;;;;;;;;5020598;28;20370;-80
2022/07/20 09:26:00;;;;;;;3.15;2.95;;;;;;;;;;5023155;28;20780;-81
2022/07/20 09:28:47;;;;;;;3.28;3.03;;;;;;;;;;5035137;28;20647;-81
2022/07/20 09:31:16;;;;;;;2.67;2.50;;;;;;;;;;5043107;28;20232;-81
2022/07/20 09:33:50;;;;;;;2.90;2.72;;;;;;;;;;5042338;28;20268;-81
2022/07/20 09:36:18;;;;;;;3.63;3.33;;;;;;;;;;5024142;28;20253;-81
2022/07/20 09:38:47;;;;;;;3.45;3.17;;;;;;;;;;5018084;28;20267;-81
2022/07/20 09:41:26;;;;;;;3.08;2.88;;;;;;;;;;5019091;28;20199;-83
2022/07/20 09:43:55;;;;;;;2.95;2.75;;;;;;;;;;5018262;28;20280;-82
2022/07/20 09:46:24;;;;;;;5.10;3.67;;;;;;;;;;5017234;28;20771;-82
2022/07/20 09:48:55;;;;;;;3.47;3.17;;;;;;;;;;5017798;28;20314;-82
2022/07/20 09:51:26;;;;;;;2.95;2.75;;;;;;;;;;5017537;28;20270;-82
2022/07/20 09:53:57;;;;;;;3.13;2.92;;;;;;;;;;5018380;28;20313;-82
2022/07/20 09:56:26;;;;;;;2.90;2.70;;;;;;;;;;5017315;28;20199;-84
2022/07/20 09:58:56;;;;;;;2.60;2.40;;;;;;;;;;5017872;28;20576;-82
2022/07/20 10:01:26;;;;;;;2.85;2.58;;;;;;;;;;5018468;28;20302;-83
2022/07/20 10:03:55;;;;;;;2.90;2.70;;;;;;;;;;5016936;28;20229;-83
2022/07/20 10:06:25;;;;;;;2.42;2.33;;;;;;;;;;5031100;28;20309;-83
2022/07/20 10:08:55;;;;;;;2.92;2.72;;;;;;;;;;5036891;28;20237;-84
2022/07/20 10:11:25;;;;;;;2.83;2.63;;;;;;;;;;5037200;28;20198;-83
2022/07/20 10:13:54;;;;;;;2.92;2.72;;;;;;;;;;5037644;28;20317;-83
2022/07/20 10:16:29;;;;;;;2.22;2.13;;;;;;;;;;5036783;28;20636;-82
2022/07/20 10:18:57;;;;;;;2.78;2.58;;;;;;;;;;5036127;28;20205;-82
2022/07/20 10:21:38;;;;;;;2.55;2.45;;;;;;;;;;5037466;28;20292;-82
2022/07/20 10:24:27;;;;;;;2.45;2.25;;;;;;;;;;5036640;28;20300;-83
2022/07/20 10:27:18;;;;;;;2.50;2.40;;;;;;;;;;5036130;28;20213;-83
2022/07/20 10:29:49;;;;;;;2.85;2.65;;;;;;;;;;5036887;28;20577;-82
2022/07/20 10:32:20;;;;;;;1.98;1.88;;;;;;;;;;5036589;28;20276;-83
2022/07/20 10:34:51;;;;;;;2.58;2.40;;;;;;;;;;5036366;28;20324;-83
2022/07/20 10:37:32;;;;;;;2.55;2.35;;;;;;;;;;5035563;28;20269;-81
2022/07/20 10:40:15;;;;;;;2.47;2.30;;;;;;;;;;5036645;28;20225;-81
2022/07/20 10:42:46;;;;;;;2.67;2.47;;;;;;;;;;5036208;28;20273;-81
2022/07/20 10:45:35;;;;;;;2.90;2.60;;;;;;;;;;5036112;28;20256;-82
2022/07/20 10:48:18;;;;;;;2.67;2.45;;;;;;;;;;5035816;28;20241;-83
2022/07/20 10:50:49;;;;;;;2.35;2.17;;;;;;;;;;5036087;28;20190;-81
2022/07/20 10:53:34;;;;;;;2.95;2.75;;;;;;;;;;5035666;28;20205;-82
2022/07/20 10:56:05;;;;;;;2.25;2.10;;;;;;;;;;5036202;28;20233;-82
2022/07/20 10:58:34;;;;;;;3.08;2.88;;;;;;;;;;5034983;28;20209;-81
2022/07/20 11:01:06;;;;;;;2.08;1.98;;;;;;;;;;5036344;28;20705;-82
2022/07/20 11:03:39;;;;;;;2.20;2.10;;;;;;;;;;5035875;28;20261;-81
2022/07/20 11:06:12;;;;;;;2.22;2.13;;;;;;;;;;5035010;28;20661;-81
2022/07/20 11:08:42;;;;;;;2.05;1.95;;;;;;;;;;5035959;28;20248;-82
2022/07/20 11:11:18;;;;;;;2.42;2.22;;;;;;;;;;5034848;28;20236;-81
2022/07/20 11:13:47;;;;;;;2.53;2.20;;;;;;;;;;5035083;28;20228;-81
2022/07/20 11:16:20;;;;;;;2.95;2.65;;;;;;;;;;5034969;28;20662;-80
2022/07/20 11:18:48;;;;;;;2.20;2.10;;;;;;;;;;5036416;28;20202;-82
2022/07/20 11:21:16;;;;;;;1.85;1.75;;;;;;;;;;5035126;28;20673;-81
2022/07/20 11:23:46;;;;;;;2.40;2.20;;;;;;;;;;5035720;28;20757;-82
2022/07/20 11:26:15;;;;;;;2.40;2.30;;;;;;;;;;5035288;28;20705;-81
2022/07/20 11:28:47;;;;;;;2.58;2.00;;;;;;;;;;5034974;28;20690;-82
2022/07/20 11:31:17;;;;;;;1.40;1.40;;;;;;;;;;5035703;28;20631;-82
2022/07/20 11:33:48;;;;;;;2.08;1.98;;;;;;;;;;5034678;28;20317;-82
2022/07/20 11:36:17;;;;;;;2.03;1.83;;;;;;;;;;5035251;28;20582;-82
2022/07/20 11:38:47;;;;;;;1.80;1.70;;;;;;;;;;5034663;28;20265;-82
2022/07/20 11:41:19;;;;;;;2.00;1.90;;;;;;;;;;5032882;28;20625;-82
2022/07/20 11:43:47;;;;;;;2.08;1.98;;;;;;;;;;5025342;28;20301;-83
2022/07/20 11:46:18;;;;;;;1.55;1.45;;;;;;;;;;5031526;28;20648;-80
2022/07/20 11:48:55;;;;;;;1.75;1.65;;;;;;;;;;5013271;28;20182;-83
2022/07/20 11:51:23;;;;;;;1.55;1.45;;;;;;;;;;5013929;28;20328;-81
2022/07/20 11:53:51;;;;;;;1.70;1.60;;;;;;;;;;5014580;28;20222;-83
2022/07/20 11:56:21;;;;;;;1.38;1.35;;;;;;;;;;5013696;28;20199;-82
2022/07/20 11:58:51;;;;;;;1.52;1.42;;;;;;;;;;5025606;28;20712;-82
2022/07/20 12:01:24;;;;;;;2.20;2.10;;;;;;;;;;5015059;28;20209;-81
2022/07/20 12:03:53;;;;;;;2.10;2.00;;;;;;;;;;5015593;28;20309;-82
2022/07/20 12:06:21;;;;;;;2.08;1.98;;;;;;;;;;5029645;28;20690;-82
2022/07/20 12:09:05;;;;;;;1.55;1.55;;;;;;;;;;5034769;28;20266;-84
2022/07/20 12:11:32;;;;;;;1.90;1.80;;;;;;;;;;5035004;28;20188;-83
2022/07/20 12:14:00;;;;;;;1.85;1.75;;;;;;;;;;5034838;28;20316;-82
2022/07/20 12:16:45;;;;;;;1.90;1.77;;;;;;;;;;5033958;28;20285;-83
2022/07/20 12:19:13;;;;;;;1.95;1.85;;;;;;;;;;5034530;28;20200;-81
2022/07/20 12:21:44;;;;;;;2.20;2.00;;;;;;;;;;5034698;28;20202;-81
2022/07/20 12:24:14;;;;;;;1.98;1.73;;;;;;;;;;5034615;28;20249;-83
2022/07/20 12:26:43;;;;;;;1.88;1.77;;;;;;;;;;5034128;28;20308;-83
2022/07/20 12:29:22;;;;;;;1.45;1.42;;;;;;;;;;5035020;28;20204;-83
2022/07/20 12:32:02;;;;;;;1.70;1.60;;;;;;;;;;5038890;28;20229;-83
2022/07/20 12:34:31;;;;;;;1.58;1.58;;;;;;;;;;5038781;28;20289;-82
2022/07/20 12:36:59;;;;;;;1.60;1.50;;;;;;;;;;5018369;28;20194;-83
2022/07/20 12:39:47;;;;;;;1.90;1.80;;;;;;;;;;5018551;28;20584;-84
2022/07/20 12:42:18;;;;;;;1.42;1.35;;;;;;;;;;5018699;28;20194;-81
2022/07/20 12:44:47;;;;;;;1.95;1.52;;;;;;;;;;5018278;28;20218;-82
2022/07/20 12:47:17;;;;;;;1.58;1.50;;;;;;;;;;5017761;28;20317;-82
2022/07/20 12:49:44;;;;;;;1.35;1.35;;;;;;;;;;5018255;28;20206;-82
2022/07/20 12:52:12;;;;;;;1.48;1.48;;;;;;;;;;5016735;28;20645;-82
2022/07/20 12:54:40;;;;;;;2.28;2.10;;;;;;;;;;5017998;28;20297;-83
2022/07/20 12:57:07;;;;;;;1.80;1.70;;;;;;;;;;5019775;28;20289;-84
2022/07/20 12:59:35;;;;;;;1.67;1.58;;;;;;;;;;5037533;28;20249;-83
2022/07/20 13:02:02;;;;;;;2.22;1.95;;;;;;;;;;5037351;28;20288;-83
2022/07/20 13:04:31;;;;;;;1.75;1.65;;;;;;;;;;5037981;28;20312;-83
2022/07/20 13:06:59;;;;;;;1.90;1.80;;;;;;;;;;5037979;28;20284;-83
2022/07/20 13:09:26;;;;;;;1.98;1.88;;;;;;;;;;5037579;28;20198;-83
2022/07/20 13:11:54;;;;;;;2.00;1.90;;;;;;;;;;5037876;28;20216;-82
2022/07/20 13:14:24;;;;;;;2.58;2.38;;;;;;;;;;5038477;28;20251;-83
2022/07/20 13:16:54;;;;;;;1.75;1.65;;;;;;;;;;5037552;28;20288;-84
2022/07/20 13:19:22;;;;;;;1.80;1.70;;;;;;;;;;5037900;28;20233;-82
2022/07/20 13:21:51;;;;;;;1.70;1.60;;;;;;;;;;5037790;28;20237;-84
2022/07/20 13:24:19;;;;;;;1.80;1.67;;;;;;;;;;5037603;28;20226;-82
2022/07/20 13:26:48;;;;;;;1.92;1.83;;;;;;;;;;5035686;28;20851;-81
2022/07/20 13:29:16;;;;;;;1.50;1.40;;;;;;;;;;5036518;28;20221;-82
2022/07/20 13:31:44;;;;;;;2.05;1.95;;;;;;;;;;5038179;28;20233;-82
2022/07/20 13:34:12;;;;;;;2.20;2.00;;;;;;;;;;5037075;28;20601;-82
2022/07/20 13:36:39;;;;;;;2.40;2.20;;;;;;;;;;5028064;28;20298;-82
2022/07/20 13:39:08;;;;;;;2.15;1.98;;;;;;;;;;5044534;28;20288;-81
2022/07/20 13:41:36;;;;;;;1.80;1.70;;;;;;;;;;5055053;28;20295;-82
2022/07/20 13:44:03;;;;;;;2.78;2.58;;;;;;;;;;5055473;28;20300;-81
2022/07/20 13:46:31;;;;;;;3.20;1.92;;;;;;;;;;5055114;28;20757;-81
2022/07/20 13:48:58;;;;;;;1.95;1.85;;;;;;;;;;5054789;28;20312;-83
2022/07/20 13:51:26;;;;;;;1.95;1.80;;;;;;;;;;5056791;28;20295;-82
2022/07/20 13:53:54;;;;;;;1.80;1.70;;;;;;;;;;5057490;28;20217;-81
2022/07/20 13:56:23;;;;;;;1.52;1.42;;;;;;;;;;5057122;28;20225;-82
2022/07/20 13:58:50;;;;;;;1.83;1.73;;;;;;;;;;5042013;28;20633;-82
2022/07/20 14:01:18;;;;;;;1.60;1.50;;;;;;;;;;5038826;28;20702;-81
2022/07/20 14:03:45;;;;;;;1.70;1.60;;;;;;;;;;5038272;28;20337;-83
2022/07/20 14:06:13;;;;;;;1.35;1.35;;;;;;;;;;5033374;28;20290;-82
2022/07/20 14:08:40;;;;;;;1.60;1.48;;;;;;;;;;5023287;28;20313;-84
2022/07/20 14:11:08;;;;;;;1.27;1.20;;;;;;;;;;5017086;28;20257;-83
2022/07/20 14:13:38;;;;;;;1.70;1.42;;;;;;;;;;5016989;28;20257;-83
2022/07/20 14:16:06;;;;;;;1.80;1.70;;;;;;;;;;5016577;28;20290;-83
2022/07/20 14:18:34;;;;;;;1.77;1.67;;;;;;;;;;5015761;28;20206;-81
2022/07/20 14:21:03;;;;;;;2.65;2.45;;;;;;;;;;5016884;28;20297;-83
2022/07/20 14:23:31;;;;;;;1.90;1.80;;;;;;;;;;5017630;28;20635;-84
2022/07/20 14:25:58;;;;;;;1.70;1.60;;;;;;;;;;5017260;28;20644;-83
2022/07/20 14:28:26;;;;;;;1.67;1.58;;;;;;;;;;5029615;28;20316;-83
2022/07/20 14:30:54;;;;;;;1.70;1.60;;;;;;;;;;5037755;28;20293;-83
2022/07/20 14:33:22;;;;;;;1.50;1.40;;;;;;;;;;5037045;28;20285;-83
2022/07/20 14:35:50;;;;;;;1.60;1.50;;;;;;;;;;5037104;28;20240;-83
2022/07/20 14:38:18;;;;;;;1.50;1.50;;;;;;;;;;5037192;28;20319;-83
2022/07/20 14:40:46;;;;;;;1.70;1.60;;;;;;;;;;5036394;28;20233;-83
2022/07/20 14:43:13;;;;;;;1.60;1.50;;;;;;;;;;5036827;28;20201;-82
2022/07/20 14:45:41;;;;;;;1.92;1.83;;;;;;;;;;5036628;28;20273;-82
2022/07/20 14:48:10;;;;;;;1.67;1.58;;;;;;;;;;5035364;28;20308;-81
2022/07/20 14:50:37;;;;;;;1.55;1.45;;;;;;;;;;5036685;28;20212;-81
2022/07/20 14:53:06;;;;;;;1.50;1.40;;;;;;;;;;5037069;28;20293;-82
2022/07/20 14:55:35;;;;;;;2.00;1.90;;;;;;;;;;5037052;28;20213;-82